Time;durP1;ratioP1;P1;durP2;ratioP2;P2;SDS_P1;SDS_P2;PMS_P1;PMS_P2;Temp;Humidity;BMP_temperature;BMP_pressure;BME280_temperature;BME280_humidity;BME280_pressure;Samples;Min_cycle;Max_cycle;Signal;HPM_P1;HPM_P2
2021/09/20 00:01:40;;;;;;;5.17;3.30;;;;;;;10.13;100.00;101042.44;5030248;28;20736;-73
2021/09/20 00:04:07;;;;;;;4.10;2.77;;;;;;;10.07;100.00;101042.53;5024266;28;20905;-73
2021/09/20 00:06:34;;;;;;;3.80;2.57;;;;;;;10.03;100.00;101047.81;5030064;28;20207;-73
2021/09/20 00:09:00;;;;;;;4.00;2.93;;;;;;;9.99;100.00;101053.09;5025351;28;20231;-73
2021/09/20 00:11:27;;;;;;;4.37;2.90;;;;;;;10.02;100.00;101053.03;5036089;28;20203;-73
2021/09/20 00:13:53;;;;;;;4.07;2.90;;;;;;;10.02;100.00;101046.06;5025804;28;20632;-73
2021/09/20 00:16:20;;;;;;;3.70;2.87;;;;;;;9.99;100.00;101043.53;5036404;28;20212;-72
2021/09/20 00:18:46;;;;;;;5.27;3.37;;;;;;;9.98;100.00;101043.56;5027128;28;20224;-71
2021/09/20 00:21:14;;;;;;;6.03;2.80;;;;;;;10.01;100.00;101046.97;5022603;28;20209;-72
2021/09/20 00:23:40;;;;;;;3.63;2.97;;;;;;;10.01;100.00;101043.53;5030069;28;20293;-72
2021/09/20 00:26:07;;;;;;;4.83;3.13;;;;;;;9.97;100.00;101041.84;5025622;28;20619;-73
2021/09/20 00:28:33;;;;;;;4.37;2.87;;;;;;;9.99;100.00;101037.44;5031285;28;20223;-73
2021/09/20 00:31:00;;;;;;;3.27;2.67;;;;;;;10.00;100.00;101040.03;5029827;28;20214;-73
2021/09/20 00:33:27;;;;;;;3.77;3.07;;;;;;;9.97;100.00;101036.63;5031038;28;20203;-72
2021/09/20 00:35:54;;;;;;;3.53;2.57;;;;;;;9.90;100.00;101037.63;5027267;28;20240;-73
2021/09/20 00:38:23;;;;;;;4.13;2.60;;;;;;;9.81;100.00;101039.47;5028408;28;20242;-73
2021/09/20 00:40:49;;;;;;;3.63;2.67;;;;;;;9.83;100.00;101040.34;5021315;28;20204;-72
2021/09/20 00:43:15;;;;;;;5.43;2.60;;;;;;;9.81;100.00;101041.22;5036990;28;20702;-72
2021/09/20 00:45:42;;;;;;;3.00;2.40;;;;;;;9.83;100.00;101036.84;5027992;28;20204;-73
2021/09/20 00:48:08;;;;;;;3.67;2.60;;;;;;;9.85;100.00;101040.31;5032046;28;20219;-72
2021/09/20 00:50:35;;;;;;;4.47;2.77;;;;;;;9.89;100.00;101038.53;5033632;28;20204;-72
2021/09/20 00:53:02;;;;;;;3.13;2.43;;;;;;;9.86;100.00;101032.44;5039170;28;20210;-73
2021/09/20 00:55:30;;;;;;;4.37;2.83;;;;;;;9.88;100.00;101042.84;5033896;28;20228;-73
2021/09/20 00:57:56;;;;;;;2.50;2.30;;;;;;;9.86;100.00;101034.19;5030999;28;20702;-73
2021/09/20 01:00:23;;;;;;;3.27;2.40;;;;;;;9.87;100.00;101038.53;5029333;28;20196;-73
2021/09/20 01:02:49;;;;;;;4.20;2.77;;;;;;;9.88;100.00;101037.63;5020267;28;20205;-73
2021/09/20 01:05:16;;;;;;;3.43;2.60;;;;;;;9.83;100.00;101036.84;5035469;28;20203;-72
2021/09/20 01:07:42;;;;;;;3.87;2.70;;;;;;;9.80;100.00;101035.16;5026800;28;20619;-73
2021/09/20 01:10:11;;;;;;;3.87;2.70;;;;;;;9.79;100.00;101040.41;5030573;28;20204;-73
2021/09/20 01:12:38;;;;;;;5.50;2.60;;;;;;;9.82;100.00;101042.97;5025777;28;20717;-73
2021/09/20 01:15:06;;;;;;;3.93;2.50;;;;;;;9.85;100.00;101037.72;5030121;28;20223;-72
2021/09/20 01:17:33;;;;;;;4.90;2.70;;;;;;;9.76;100.00;101041.31;5023103;28;20228;-73
2021/09/20 01:19:59;;;;;;;3.30;2.40;;;;;;;9.83;100.00;101034.25;5028087;28;20203;-73
2021/09/20 01:22:27;;;;;;;3.77;2.53;;;;;;;9.81;100.00;101036.88;5028580;28;20339;-72
2021/09/20 01:24:55;;;;;;;3.60;2.57;;;;;;;9.74;100.00;101037.00;5031671;28;20293;-73
2021/09/20 01:27:21;;;;;;;3.00;2.50;;;;;;;9.80;100.00;101037.78;5024022;28;20309;-72
2021/09/20 01:29:48;;;;;;;4.50;2.63;;;;;;;9.75;100.00;101046.56;5026605;28;20209;-73
2021/09/20 01:32:15;;;;;;;5.40;2.47;;;;;;;9.65;100.00;101040.63;5030109;28;20195;-73
2021/09/20 01:34:42;;;;;;;3.70;2.50;;;;;;;9.70;100.00;101045.75;5027188;28;20217;-73
2021/09/20 01:37:08;;;;;;;5.43;2.67;;;;;;;9.62;100.00;101040.66;5028471;28;20241;-73
2021/09/20 01:39:37;;;;;;;4.47;2.67;;;;;;;9.63;100.00;101048.44;5023667;28;20203;-72
2021/09/20 01:42:05;;;;;;;5.30;2.53;;;;;;;9.73;100.00;101037.91;5027655;28;20203;-72
2021/09/20 01:44:32;;;;;;;4.00;2.60;;;;;;;9.66;100.00;101048.41;5024888;28;20202;-73
2021/09/20 01:46:59;;;;;;;3.67;2.13;;;;;;;9.64;100.00;101047.56;5038307;28;20202;-73
2021/09/20 01:49:27;;;;;;;4.53;2.60;;;;;;;9.72;100.00;101041.38;5021449;28;20212;-72
2021/09/20 01:51:54;;;;;;;4.07;2.50;;;;;;;9.70;100.00;101054.41;5027994;28;20211;-72
2021/09/20 01:54:21;;;;;;;4.27;2.37;;;;;;;9.66;100.00;101048.41;5020057;28;20247;-73
2021/09/20 01:56:47;;;;;;;4.63;2.90;;;;;;;9.64;100.00;101052.78;5036288;28;20215;-73
2021/09/20 01:59:15;;;;;;;3.40;2.10;;;;;;;9.69;100.00;101047.47;5024552;28;20203;-73
2021/09/20 02:01:41;;;;;;;3.83;2.60;;;;;;;9.59;100.00;101053.75;5024889;28;20210;-72
2021/09/20 02:04:08;;;;;;;4.20;2.50;;;;;;;9.59;100.00;101058.94;5026849;28;20206;-73
2021/09/20 02:06:34;;;;;;;3.63;2.60;;;;;;;9.62;100.00;101056.28;5023140;28;20207;-73
2021/09/20 02:09:01;;;;;;;5.83;2.50;;;;;;;9.69;100.00;101049.22;5026643;28;20223;-73
2021/09/20 02:11:27;;;;;;;4.30;2.80;;;;;;;9.57;100.00;101053.75;5025903;28;20215;-73
2021/09/20 02:13:54;;;;;;;4.67;2.33;;;;;;;9.51;100.00;101048.63;5027449;28;20199;-73
2021/09/20 02:16:22;;;;;;;4.30;2.90;;;;;;;9.56;100.00;101054.63;5024364;28;20211;-73
2021/09/20 02:18:48;;;;;;;3.43;2.70;;;;;;;9.58;100.00;101049.41;5036712;28;20242;-73
2021/09/20 02:21:15;;;;;;;4.83;3.07;;;;;;;9.52;100.00;101052.97;5024709;28;20967;-73
2021/09/20 02:23:42;;;;;;;4.43;2.60;;;;;;;9.57;100.00;101055.47;5026783;28;20656;-73
2021/09/20 02:26:08;;;;;;;2.60;2.27;;;;;;;9.63;100.00;101055.41;5023532;28;20697;-72
2021/09/20 02:28:36;;;;;;;3.10;2.50;;;;;;;9.52;100.00;101057.31;5027953;28;20238;-73
2021/09/20 02:31:03;;;;;;;3.47;2.60;;;;;;;9.49;100.00;101058.22;5023238;28;20652;-73
2021/09/20 02:33:31;;;;;;;4.53;2.73;;;;;;;9.49;100.00;101058.22;5034457;28;20299;-73
2021/09/20 02:35:57;;;;;;;4.10;2.87;;;;;;;9.46;100.00;101061.72;5025757;28;20226;-73
2021/09/20 02:38:23;;;;;;;3.90;2.60;;;;;;;9.53;100.00;101059.88;5023706;28;20238;-73
2021/09/20 02:40:50;;;;;;;4.90;2.80;;;;;;;9.48;100.00;101069.53;5034482;28;20769;-73
2021/09/20 02:43:16;;;;;;;3.73;3.10;;;;;;;9.47;100.00;101065.19;5025380;28;20216;-72
2021/09/20 02:45:44;;;;;;;3.13;2.33;;;;;;;9.44;100.00;101065.22;5026689;28;20196;-73
2021/09/20 02:48:10;;;;;;;4.33;2.53;;;;;;;9.46;100.00;101063.44;5020223;28;20223;-73
2021/09/20 02:50:38;;;;;;;4.73;2.73;;;;;;;9.51;100.00;101058.19;5033517;28;20195;-72
2021/09/20 02:53:05;;;;;;;3.27;2.50;;;;;;;9.46;100.00;101060.84;5019073;28;20215;-73
2021/09/20 02:55:32;;;;;;;3.57;2.73;;;;;;;9.42;100.00;101064.41;5032839;28;20280;-73
2021/09/20 02:58:01;;;;;;;3.93;2.53;;;;;;;9.36;100.00;101060.13;5018333;28;20223;-72
2021/09/20 03:00:27;;;;;;;4.17;2.70;;;;;;;9.44;100.00;101060.03;5024155;28;20211;-72
2021/09/20 03:02:53;;;;;;;3.80;2.80;;;;;;;9.36;100.00;101061.91;5024477;28;20206;-73
2021/09/20 03:05:20;;;;;;;4.47;2.53;;;;;;;9.39;100.00;101064.44;5029325;28;20203;-73
2021/09/20 03:07:48;;;;;;;3.30;2.60;;;;;;;9.37;100.00;101063.59;5030116;28;20219;-71
2021/09/20 03:10:14;;;;;;;5.10;3.10;;;;;;;9.33;100.00;101061.94;5035072;28;20203;-73
2021/09/20 03:12:40;;;;;;;5.27;2.63;;;;;;;9.34;100.00;101058.44;5028981;28;20203;-73
2021/09/20 03:15:08;;;;;;;5.53;2.70;;;;;;;9.33;100.00;101064.53;5029134;28;20588;-73
2021/09/20 03:17:34;;;;;;;4.90;3.00;;;;;;;9.35;100.00;101058.41;5031389;28;20224;-73
2021/09/20 03:20:01;;;;;;;5.07;2.83;;;;;;;9.32;100.00;101066.25;5023438;28;20212;-73
2021/09/20 03:22:27;;;;;;;9.80;3.00;;;;;;;9.31;100.00;101074.09;5030308;28;20218;-72
2021/09/20 03:24:55;;;;;;;4.67;2.80;;;;;;;9.31;100.00;101071.50;5023218;28;20393;-73
2021/09/20 03:27:22;;;;;;;3.80;2.60;;;;;;;9.32;100.00;101076.66;5025458;28;20219;-73
2021/09/20 03:29:48;;;;;;;3.53;2.80;;;;;;;9.38;100.00;101062.72;5022458;28;20199;-72
2021/09/20 03:32:14;;;;;;;4.27;3.10;;;;;;;9.32;100.00;101073.22;5027924;28;20583;-73
2021/09/20 03:34:41;;;;;;;5.37;3.00;;;;;;;9.39;100.00;101074.84;5022847;28;20233;-73
2021/09/20 03:37:07;;;;;;;3.37;2.70;;;;;;;9.35;100.00;101065.38;5026308;28;20233;-73
2021/09/20 03:39:34;;;;;;;3.77;2.97;;;;;;;9.27;100.00;101079.34;5023012;28;20208;-73
2021/09/20 03:42:01;;;;;;;6.07;3.37;;;;;;;9.26;100.00;101084.56;5023374;28;20201;-73
2021/09/20 03:44:28;;;;;;;4.20;3.10;;;;;;;9.32;100.00;101073.22;5026435;28;20200;-73
2021/09/20 03:46:55;;;;;;;6.13;2.97;;;;;;;9.33;100.00;101081.00;5026155;28;20214;-72
2021/09/20 03:49:21;;;;;;;4.13;2.73;;;;;;;9.29;100.00;101079.31;5030789;28;20297;-72
2021/09/20 03:51:47;;;;;;;4.30;3.07;;;;;;;9.34;100.00;101076.63;5024249;28;20300;-73
2021/09/20 03:54:14;;;;;;;4.43;2.80;;;;;;;9.31;100.00;101084.50;5027998;28;20204;-73
2021/09/20 03:56:40;;;;;;;4.97;2.73;;;;;;;9.39;100.00;101082.66;5024564;28;20239;-72
2021/09/20 03:59:08;;;;;;;5.93;2.97;;;;;;;9.39;100.00;101082.66;5026912;28;20207;-73
2021/09/20 04:01:35;;;;;;;4.77;2.80;;;;;;;9.36;100.00;101086.16;5022312;28;20213;-73
2021/09/20 04:04:01;;;;;;;6.33;3.07;;;;;;;9.42;100.00;101082.63;5027085;28;20208;-73
2021/09/20 04:06:27;;;;;;;4.30;2.83;;;;;;;9.33;100.00;101085.34;5025818;28;20208;-72
2021/09/20 04:08:58;;;;;;;4.30;2.80;;;;;;;9.29;100.00;101085.38;5037911;28;20227;-73
2021/09/20 04:11:24;;;;;;;5.33;2.80;;;;;;;9.28;100.00;101095.81;5023786;28;20200;-73
2021/09/20 04:13:51;;;;;;;3.50;2.93;;;;;;;9.23;100.00;101097.59;5027923;28;20196;-73
2021/09/20 04:16:18;;;;;;;6.47;3.03;;;;;;;9.27;100.00;101094.97;5023895;28;20216;-73
2021/09/20 04:18:45;;;;;;;7.27;3.30;;;;;;;9.27;100.00;101102.75;5029289;28;20224;-72
2021/09/20 04:21:11;;;;;;;3.83;2.90;;;;;;;9.22;100.00;101104.56;5027161;28;20710;-73
2021/09/20 04:23:38;;;;;;;4.97;2.77;;;;;;;9.26;100.00;101106.22;5026200;28;20201;-73
2021/09/20 04:26:04;;;;;;;3.97;3.00;;;;;;;9.32;100.00;101112.25;5022124;28;20465;-73
2021/09/20 04:28:30;;;;;;;3.87;3.00;;;;;;;9.27;100.00;101107.13;5025254;28;20236;-72
2021/09/20 04:30:57;;;;;;;5.37;3.10;;;;;;;9.20;100.00;101115.84;5024582;28;20918;-73
2021/09/20 04:33:25;;;;;;;6.63;3.10;;;;;;;9.18;100.00;101115.00;5022026;28;20207;-73
2021/09/20 04:35:51;;;;;;;5.03;2.93;;;;;;;9.21;100.00;101114.97;5026857;28;20242;-73
2021/09/20 04:38:18;;;;;;;5.30;3.20;;;;;;;9.22;100.00;101119.31;5023831;28;20241;-72
2021/09/20 04:40:45;;;;;;;3.93;2.87;;;;;;;9.21;100.00;101118.44;5027712;28;20216;-72
2021/09/20 04:43:13;;;;;;;4.77;2.60;;;;;;;9.15;100.00;101125.47;5022287;28;20227;-73
2021/09/20 04:45:40;;;;;;;6.07;3.07;;;;;;;9.15;100.00;101118.53;5031241;28;20565;-72
2021/09/20 04:48:10;;;;;;;4.73;2.70;;;;;;;9.13;100.00;101122.91;5021612;28;20266;-73
2021/09/20 04:50:38;;;;;;;6.03;2.83;;;;;;;9.22;100.00;101120.16;5027523;28;20200;-72
2021/09/20 04:53:04;;;;;;;5.40;2.83;;;;;;;9.19;100.00;101127.16;5023927;28;20219;-72
2021/09/20 04:55:31;;;;;;;4.00;2.90;;;;;;;9.27;100.00;101126.19;5026939;28;20230;-72
2021/09/20 04:57:57;;;;;;;4.13;3.10;;;;;;;9.17;100.00;101134.97;5028090;28;20224;-73
2021/09/20 05:00:24;;;;;;;4.10;3.13;;;;;;;9.18;100.00;101120.22;5027190;28;20210;-73
2021/09/20 05:02:50;;;;;;;5.07;2.90;;;;;;;9.19;100.00;101140.16;5025836;28;20204;-72
2021/09/20 05:05:16;;;;;;;4.10;3.00;;;;;;;9.33;100.00;101143.44;5022201;28;20666;-73
2021/09/20 05:07:44;;;;;;;3.10;2.40;;;;;;;9.24;100.00;101140.97;5031283;28;20578;-73
2021/09/20 05:10:10;;;;;;;4.83;3.37;;;;;;;9.26;100.00;101145.25;5020219;28;20558;-72
2021/09/20 05:12:37;;;;;;;3.43;2.87;;;;;;;9.36;100.00;101138.22;5026096;28;20203;-73
2021/09/20 05:15:03;;;;;;;4.67;3.07;;;;;;;9.26;100.00;101149.63;5022517;28;20216;-73
2021/09/20 05:17:30;;;;;;;4.33;3.17;;;;;;;9.28;100.00;101153.06;5025341;28;20223;-72
2021/09/20 05:19:56;;;;;;;5.43;3.00;;;;;;;9.25;100.00;101155.69;5022277;28;20203;-73
2021/09/20 05:22:22;;;;;;;4.30;3.17;;;;;;;9.29;100.00;101154.78;5033274;28;20602;-72
2021/09/20 05:24:50;;;;;;;4.50;2.90;;;;;;;9.23;100.00;101153.13;5024435;28;20207;-73
2021/09/20 05:27:16;;;;;;;4.07;3.07;;;;;;;9.30;100.00;101156.50;5025104;28;20231;-71
2021/09/20 05:29:44;;;;;;;4.50;3.00;;;;;;;9.32;100.00;101159.94;5015973;28;20211;-73
2021/09/20 05:32:10;;;;;;;4.67;2.90;;;;;;;9.34;100.00;101159.91;5017104;28;20204;-72
2021/09/20 05:34:37;;;;;;;3.97;2.93;;;;;;;9.32;100.00;101169.50;5013746;28;20202;-72
2021/09/20 05:37:03;;;;;;;5.83;2.93;;;;;;;9.33;100.00;101161.66;5025115;28;20729;-72
2021/09/20 05:39:30;;;;;;;5.40;2.97;;;;;;;9.32;100.00;101162.53;5022325;28;20207;-73
2021/09/20 05:41:58;;;;;;;6.30;3.20;;;;;;;9.33;100.00;101166.03;5021953;28;20200;-73
2021/09/20 05:44:24;;;;;;;5.40;3.43;;;;;;;9.27;100.00;101161.75;5017485;28;20203;-72
2021/09/20 05:46:51;;;;;;;4.17;3.07;;;;;;;9.26;100.00;101171.28;5019183;28;20792;-73
2021/09/20 05:49:17;;;;;;;4.37;3.17;;;;;;;9.36;100.00;101163.38;5021564;28;20215;-73
2021/09/20 05:51:44;;;;;;;4.40;3.23;;;;;;;9.41;100.00;101169.38;5022509;28;20208;-73
2021/09/20 05:54:10;;;;;;;4.57;2.90;;;;;;;9.32;100.00;101169.50;5024081;28;20204;-73
2021/09/20 05:56:36;;;;;;;3.60;2.70;;;;;;;9.41;100.00;101169.38;5022641;28;20892;-72
2021/09/20 05:59:05;;;;;;;4.27;2.80;;;;;;;9.37;100.00;101178.94;5022641;28;20227;-73
2021/09/20 06:01:31;;;;;;;4.57;3.07;;;;;;;9.34;100.00;101167.72;5021048;28;20691;-73
2021/09/20 06:03:58;;;;;;;4.63;3.10;;;;;;;9.42;100.00;101171.94;5022676;28;20701;-73
2021/09/20 06:06:24;;;;;;;4.43;3.03;;;;;;;9.51;100.00;101170.97;5025287;28;20706;-72
2021/09/20 06:08:50;;;;;;;4.90;3.40;;;;;;;9.45;100.00;101176.28;5021057;28;20238;-73
2021/09/20 06:11:17;;;;;;;5.63;3.37;;;;;;;9.47;100.00;101182.31;5024764;28;20204;-73
2021/09/20 06:13:43;;;;;;;4.00;2.90;;;;;;;9.50;100.00;101181.41;5017929;28;20207;-72
2021/09/20 06:16:11;;;;;;;4.47;2.90;;;;;;;9.49;100.00;101180.56;5027820;28;20643;-72
2021/09/20 06:18:37;;;;;;;4.00;2.90;;;;;;;9.54;100.00;101183.97;5022778;28;20224;-72
2021/09/20 06:21:04;;;;;;;4.80;3.07;;;;;;;9.58;100.00;101182.19;5026419;28;20215;-73
2021/09/20 06:23:30;;;;;;;6.27;2.90;;;;;;;9.54;100.00;101180.50;5021131;28;20207;-73
2021/09/20 06:25:57;;;;;;;3.50;2.63;;;;;;;9.60;100.00;101181.28;5027935;28;20215;-73
2021/09/20 06:28:23;;;;;;;5.00;2.80;;;;;;;9.63;100.00;101193.41;5020138;28;20277;-73
2021/09/20 06:30:49;;;;;;;5.13;2.93;;;;;;;9.67;100.00;101192.47;5023352;28;20741;-73
2021/09/20 06:33:17;;;;;;;4.67;2.90;;;;;;;9.69;100.00;101195.91;5026817;28;20203;-73
2021/09/20 06:35:44;;;;;;;6.10;3.20;;;;;;;9.69;100.00;101193.28;5023305;28;20219;-73
2021/09/20 06:38:11;;;;;;;5.03;3.20;;;;;;;9.72;100.00;101193.25;5021800;28;20266;-72
2021/09/20 06:40:37;;;;;;;3.73;2.80;;;;;;;9.80;100.00;101193.19;5017496;28;20215;-72
2021/09/20 06:43:04;;;;;;;4.67;3.13;;;;;;;9.81;100.00;101194.88;5031867;28;20207;-73
2021/09/20 06:45:30;;;;;;;4.23;3.03;;;;;;;9.81;100.00;101200.09;5026329;28;20200;-72
2021/09/20 06:47:57;;;;;;;3.57;2.67;;;;;;;9.82;100.00;101201.81;5032502;28;20227;-72
2021/09/20 06:50:24;;;;;;;4.30;3.37;;;;;;;9.83;100.00;101201.81;5021892;28;20216;-73
2021/09/20 06:52:51;;;;;;;4.13;3.00;;;;;;;9.89;100.00;101200.84;5035442;28;20203;-73
2021/09/20 06:55:17;;;;;;;5.40;3.20;;;;;;;9.88;100.00;101196.50;5021520;28;20200;-72
2021/09/20 06:57:43;;;;;;;6.50;3.57;;;;;;;9.86;100.00;101206.09;5032791;28;20231;-73
2021/09/20 07:00:12;;;;;;;6.57;3.43;;;;;;;9.89;100.00;101205.22;5021218;28;20204;-73
2021/09/20 07:06:26;;;;;;;5.40;3.00;;;;;;;9.95;100.00;101205.97;5030581;28;20261;-73
2021/09/20 07:08:53;;;;;;;6.87;2.90;;;;;;;9.92;100.00;101216.44;5020715;28;20226;-73
2021/09/20 07:11:19;;;;;;;4.73;3.33;;;;;;;9.97;100.00;101214.63;5027084;28;20211;-73
2021/09/20 07:17:33;;;;;;;4.20;2.93;;;;;;;9.95;100.00;101224.19;5018722;28;20219;-73
2021/09/20 07:20:00;;;;;;;4.70;3.03;;;;;;;10.00;100.00;101227.59;5031394;28;20210;-73
2021/09/20 07:22:28;;;;;;;5.10;3.30;;;;;;;9.95;100.00;101229.41;5026809;28;20212;-72
2021/09/20 07:24:54;;;;;;;5.60;3.10;;;;;;;9.91;100.00;101239.91;5023313;28;20211;-73
2021/09/20 07:27:21;;;;;;;4.33;2.73;;;;;;;9.96;100.00;101238.94;5021423;28;20226;-73
2021/09/20 07:29:47;;;;;;;6.87;3.20;;;;;;;9.93;100.00;101240.75;5023577;28;20562;-72
2021/09/20 07:32:14;;;;;;;4.57;3.30;;;;;;;9.95;99.94;101241.56;5018130;28;20208;-72
2021/09/20 07:34:40;;;;;;;5.07;3.13;;;;;;;10.03;100.00;101247.56;5028691;28;20211;-73
2021/09/20 07:37:07;;;;;;;6.40;2.97;;;;;;;9.95;98.49;101254.59;5025049;28;20234;-73
2021/09/20 07:39:34;;;;;;;4.00;2.87;;;;;;;9.97;99.56;101250.22;5023974;28;20677;-72
2021/09/20 07:42:02;;;;;;;4.50;3.30;;;;;;;9.93;97.61;101254.63;5029796;28;20206;-72
2021/09/20 07:44:28;;;;;;;4.27;3.10;;;;;;;10.00;97.90;101256.25;5024199;28;20593;-72
2021/09/20 07:46:54;;;;;;;4.37;2.80;;;;;;;10.10;98.17;101262.22;5036049;28;20192;-73
2021/09/20 07:49:21;;;;;;;3.77;2.70;;;;;;;10.13;97.20;101261.28;5027577;28;20207;-72
2021/09/20 07:51:47;;;;;;;3.70;2.70;;;;;;;10.16;96.89;101267.31;5037368;28;20203;-73
2021/09/20 07:54:13;;;;;;;10.07;5.87;;;;;;;10.23;96.86;101268.09;5027295;28;20208;-73
2021/09/20 07:56:41;;;;;;;4.97;3.50;;;;;;;10.25;95.20;101274.16;5042564;28;20216;-73
2021/09/20 07:59:07;;;;;;;5.07;3.40;;;;;;;10.27;94.78;101274.13;5022330;28;20207;-73
2021/09/20 08:01:34;;;;;;;5.50;3.30;;;;;;;10.36;96.28;101279.22;5027518;28;20210;-73
2021/09/20 08:04:00;;;;;;;5.63;3.10;;;;;;;10.42;95.03;101280.00;5024553;28;20211;-73
2021/09/20 08:06:28;;;;;;;4.60;2.97;;;;;;;10.37;93.55;101279.22;5032233;28;20648;-73
2021/09/20 08:08:54;;;;;;;4.77;3.27;;;;;;;10.57;97.24;101270.22;5027205;28;20222;-73
2021/09/20 08:11:21;;;;;;;6.00;2.97;;;;;;;10.65;94.99;101281.41;5027652;28;20207;-73
2021/09/20 08:13:49;;;;;;;4.30;2.40;;;;;;;10.68;92.89;101285.72;5029474;28;20201;-73
2021/09/20 08:16:15;;;;;;;5.73;2.83;;;;;;;10.80;93.40;101277.69;5025807;28;20290;-73
2021/09/20 08:18:42;;;;;;;4.50;3.00;;;;;;;10.88;92.83;101280.16;5037280;28;20223;-73
2021/09/20 08:21:08;;;;;;;4.50;2.60;;;;;;;10.96;92.40;101288.75;5026387;28;20832;-73
2021/09/20 08:23:35;;;;;;;4.57;2.70;;;;;;;11.05;92.94;101283.34;5027041;28;20197;-73
2021/09/20 08:26:02;;;;;;;6.13;2.83;;;;;;;11.11;92.30;101277.16;5023282;28;20231;-73
2021/09/20 08:28:29;;;;;;;3.10;2.60;;;;;;;11.20;92.08;101279.59;5037407;28;20965;-73
2021/09/20 08:30:56;;;;;;;4.50;2.80;;;;;;;11.30;93.33;101281.16;5022109;28;20216;-73
2021/09/20 08:33:23;;;;;;;3.37;2.63;;;;;;;11.36;92.95;101283.66;5029907;28;20210;-73
2021/09/20 08:35:49;;;;;;;5.83;2.87;;;;;;;11.45;92.16;101289.56;5020995;28;20205;-72
2021/09/20 08:38:16;;;;;;;7.93;2.97;;;;;;;11.40;88.26;101301.84;5022218;28;20231;-73
2021/09/20 08:40:42;;;;;;;4.30;2.60;;;;;;;11.35;87.46;101302.81;5026901;28;20206;-73
2021/09/20 08:43:09;;;;;;;3.53;2.70;;;;;;;11.35;87.40;101304.56;5030903;28;20298;-72
2021/09/20 08:45:35;;;;;;;5.27;2.57;;;;;;;11.33;86.63;101311.56;5025933;28;20205;-72
2021/09/20 08:48:03;;;;;;;5.17;3.13;;;;;;;11.48;90.26;101298.22;5026584;28;20222;-73
2021/09/20 08:50:32;;;;;;;5.13;2.83;;;;;;;11.54;90.21;101305.09;5029922;28;20226;-73
2021/09/20 08:52:59;;;;;;;4.53;3.20;;;;;;;11.55;88.51;101312.00;5029386;28;20224;-72
2021/09/20 08:55:26;;;;;;;4.83;2.73;;;;;;;11.58;87.43;101304.13;5032769;28;20726;-73
2021/09/20 08:57:53;;;;;;;4.57;2.90;;;;;;;11.53;85.86;101309.44;5025561;28;20229;-73
2021/09/20 09:00:20;;;;;;;4.77;3.00;;;;;;;11.60;85.67;101312.78;5033282;28;20303;-73
2021/09/20 09:02:46;;;;;;;3.43;2.57;;;;;;;11.65;86.74;101313.56;5024524;28;20219;-73
2021/09/20 09:05:16;;;;;;;5.57;2.97;;;;;;;11.72;87.42;101309.09;5027669;28;20571;-73
2021/09/20 09:07:44;;;;;;;3.90;2.60;;;;;;;11.80;86.87;101306.31;5024752;28;20228;-73
2021/09/20 09:10:11;;;;;;;4.80;2.63;;;;;;;11.88;86.17;101310.47;5028181;28;20215;-73
2021/09/20 09:12:38;;;;;;;4.33;2.57;;;;;;;11.98;88.17;101308.59;5021850;28;20817;-73
2021/09/20 09:15:07;;;;;;;3.63;2.73;;;;;;;12.04;84.35;101313.66;5034747;28;20210;-73
2021/09/20 09:17:36;;;;;;;3.43;2.53;;;;;;;12.01;82.05;101320.72;5021930;28;20223;-73
2021/09/20 09:20:05;;;;;;;4.50;2.63;;;;;;;12.15;84.51;101316.03;5026090;28;20208;-73
2021/09/20 09:22:42;;;;;;;4.40;2.70;;;;;;;12.33;86.37;101312.19;5031657;28;20199;-72
2021/09/20 09:25:10;;;;;;;3.47;2.27;;;;;;;12.45;86.41;101316.25;5022871;28;20270;-73
2021/09/20 09:27:38;;;;;;;2.67;2.30;;;;;;;12.54;82.84;101321.31;5025990;28;20219;-73
2021/09/20 09:30:09;;;;;;;3.20;2.40;;;;;;;12.56;80.14;101326.47;5021858;28;20211;-73
2021/09/20 09:32:36;;;;;;;3.17;2.20;;;;;;;12.67;80.61;101325.34;5040101;28;20283;-73
2021/09/20 09:35:06;;;;;;;3.07;2.23;;;;;;;12.76;79.07;101331.25;5022869;28;20212;-73
2021/09/20 09:37:34;;;;;;;2.60;2.40;;;;;;;12.89;79.20;101330.03;5033166;28;20228;-73
2021/09/20 09:40:22;;;;;;;3.47;2.40;;;;;;;12.98;80.63;101328.94;5023283;28;20973;-73
2021/09/20 09:42:51;;;;;;;3.30;2.40;;;;;;;13.12;79.01;101329.50;5022634;28;20298;-73
2021/09/20 09:45:25;;;;;;;3.10;2.40;;;;;;;13.18;75.57;101334.56;5026412;28;20585;-73
2021/09/20 09:48:07;;;;;;;3.43;2.40;;;;;;;13.31;79.91;101329.00;5026824;28;20582;-74
2021/09/20 09:50:34;;;;;;;3.27;2.20;;;;;;;13.32;78.71;101341.25;5027659;28;20690;-73
2021/09/20 09:53:00;;;;;;;4.73;2.47;;;;;;;13.34;76.49;101342.06;5022769;28;20327;-73
2021/09/20 09:55:32;;;;;;;4.00;2.57;;;;;;;13.48;76.82;101337.31;5028792;28;20372;-74
2021/09/20 09:58:10;;;;;;;3.37;2.17;;;;;;;13.59;74.61;101342.25;5021132;28;20226;-74
2021/09/20 10:00:36;;;;;;;2.80;2.37;;;;;;;13.50;71.70;101356.47;5025222;28;20211;-73
2021/09/20 10:03:04;;;;;;;2.13;1.93;;;;;;;13.52;73.23;101351.19;5020040;28;20285;-73
2021/09/20 10:05:31;;;;;;;3.03;2.33;;;;;;;13.71;77.27;101341.91;5029784;28;20213;-73
2021/09/20 10:07:57;;;;;;;2.57;2.07;;;;;;;13.74;72.82;101338.38;5023412;28;20214;-73
2021/09/20 10:10:26;;;;;;;2.90;2.13;;;;;;;13.90;73.75;101349.28;5024700;28;20196;-73
2021/09/20 10:12:55;;;;;;;3.70;2.20;;;;;;;13.95;71.07;101350.84;5033312;28;20203;-73
2021/09/20 10:15:24;;;;;;;4.20;2.20;;;;;;;13.91;70.71;101354.47;5023667;28;20207;-74
2021/09/20 10:17:51;;;;;;;2.10;1.77;;;;;;;13.96;68.80;101347.31;5026066;28;20256;-73
2021/09/20 10:20:19;;;;;;;2.70;2.07;;;;;;;14.06;70.90;101347.06;5022708;28;20206;-73
2021/09/20 10:22:47;;;;;;;2.70;2.20;;;;;;;14.16;70.43;101341.50;5024170;28;20211;-72
2021/09/20 10:25:18;;;;;;;1.93;1.73;;;;;;;14.15;68.00;101345.00;5023491;28;20192;-74
2021/09/20 10:27:45;;;;;;;3.17;1.97;;;;;;;14.08;67.92;101343.47;5027306;28;20252;-74
2021/09/20 10:30:16;;;;;;;2.83;2.30;;;;;;;14.12;67.89;101350.34;5023244;28;20283;-74
2021/09/20 10:32:45;;;;;;;3.67;1.93;;;;;;;14.16;66.69;101351.16;5025993;28;20206;-73
2021/09/20 10:35:39;;;;;;;2.30;1.87;;;;;;;14.12;65.94;101352.97;5020640;28;20214;-74
2021/09/20 10:38:25;;;;;;;2.57;1.83;;;;;;;14.15;66.00;101358.13;4976278;28;20272;-73
2021/09/20 10:41:06;;;;;;;2.83;2.20;;;;;;;14.31;69.43;101344.56;5023627;28;20200;-74
2021/09/20 10:43:34;;;;;;;1.80;1.50;;;;;;;14.41;64.58;101353.88;5020572;28;20619;-72
2021/09/20 10:46:03;;;;;;;2.97;1.77;;;;;;;14.44;65.73;101340.69;5032011;28;20211;-74
2021/09/20 10:48:48;;;;;;;2.50;1.60;;;;;;;14.43;64.06;101346.81;5025035;28;20223;-74
2021/09/20 10:51:18;;;;;;;2.60;1.70;;;;;;;14.33;64.17;101343.59;5024101;28;20218;-73
2021/09/20 10:53:45;;;;;;;2.20;1.67;;;;;;;14.33;63.94;101345.38;5023418;28;20200;-73
2021/09/20 10:56:23;;;;;;;2.43;1.67;;;;;;;14.44;64.89;101340.69;5022510;28;20199;-73
2021/09/20 10:59:20;;;;;;;3.30;1.57;;;;;;;14.47;61.86;101347.56;5022731;28;20254;-73
2021/09/20 11:02:00;;;;;;;2.43;1.60;;;;;;;14.37;61.46;101350.50;5022290;28;20242;-73
2021/09/20 11:04:31;;;;;;;3.80;1.90;;;;;;;14.33;62.38;101348.84;5031860;28;20248;-74
2021/09/20 11:07:07;;;;;;;1.93;1.70;;;;;;;14.47;63.06;101351.06;5020952;28;20362;-72
2021/09/20 11:09:41;;;;;;;3.10;1.70;;;;;;;14.51;62.44;101351.81;5024792;28;20234;-74
2021/09/20 11:12:10;;;;;;;3.00;2.00;;;;;;;14.46;62.88;101348.47;5025143;28;20231;-74
2021/09/20 11:14:42;;;;;;;2.40;2.10;;;;;;;14.58;63.27;101361.25;5025226;28;20230;-73
2021/09/20 11:17:42;;;;;;;2.33;1.80;;;;;;;14.61;63.07;101355.91;5028776;28;20600;-73
2021/09/20 11:20:22;;;;;;;2.80;1.87;;;;;;;14.77;67.00;101336.16;5003786;28;20224;-74
2021/09/20 11:22:49;;;;;;;2.63;2.07;;;;;;;14.83;64.84;101344.72;5030487;28;20207;-73
2021/09/20 11:25:17;;;;;;;3.53;1.87;;;;;;;14.75;64.06;101347.59;5028365;28;20223;-73
2021/09/20 11:27:47;;;;;;;1.63;1.53;;;;;;;14.66;63.71;101351.38;5036260;28;20222;-74
2021/09/20 11:30:15;;;;;;;2.13;1.60;;;;;;;14.58;62.52;101356.00;5029468;28;20206;-73
2021/09/20 11:32:48;;;;;;;1.70;1.50;;;;;;;14.68;63.23;101356.56;5028252;28;20200;-73
2021/09/20 11:35:16;;;;;;;2.93;1.70;;;;;;;14.81;63.04;101355.28;5033575;28;20204;-73